createdAt,value
2022-10-17T00:02:25.353Z,18.00
2022-10-17T00:04:54.060Z,17.80
2022-10-17T00:07:22.552Z,18.00
2022-10-17T00:09:52.828Z,17.00
2022-10-17T00:12:21.248Z,20.00
2022-10-17T00:14:49.929Z,19.00
2022-10-17T00:17:18.360Z,19.60
2022-10-17T00:19:46.987Z,17.20
2022-10-17T00:22:15.511Z,16.40
2022-10-17T00:24:44.211Z,19.60
2022-10-17T00:27:14.009Z,8.60
2022-10-17T00:29:42.871Z,19.40
2022-10-17T00:32:11.278Z,16.00
2022-10-17T00:34:40.196Z,16.80
2022-10-17T00:37:08.875Z,17.00
2022-10-17T00:39:37.501Z,20.40
2022-10-17T00:42:06.117Z,18.00
2022-10-17T00:45:01.355Z,19.40
2022-10-17T00:47:31.037Z,16.00
2022-10-17T00:52:34.773Z,17.20
2022-10-17T00:55:12.898Z,16.20
2022-10-17T00:57:42.579Z,16.00
2022-10-17T01:00:15.693Z,17.00
2022-10-17T01:02:44.867Z,19.20
2022-10-17T01:05:14.167Z,16.40
2022-10-17T01:07:45.641Z,19.40
2022-10-17T01:10:15.329Z,18.20
2022-10-17T01:12:56.561Z,17.80
2022-10-17T01:15:39.796Z,16.80
2022-10-17T01:18:21.056Z,17.00
2022-10-17T01:21:17.897Z,18.40
2022-10-17T01:23:55.584Z,18.20
2022-10-17T01:26:29.009Z,16.80
2022-10-17T01:29:23.156Z,17.00
2022-10-17T01:32:00.641Z,18.20
2022-10-17T01:34:36.080Z,18.60
2022-10-17T01:37:15.146Z,17.20
2022-10-17T01:39:48.070Z,16.40
2022-10-17T01:42:23.490Z,16.20
2022-10-17T01:44:59.984Z,18.20
2022-10-17T01:47:33.889Z,19.00
2022-10-17T01:50:08.383Z,19.60
2022-10-17T01:52:43.405Z,15.40
2022-10-17T01:55:17.961Z,17.80
2022-10-17T01:57:51.696Z,15.80
2022-10-17T02:00:23.933Z,16.00
2022-10-17T02:02:59.393Z,20.60
2022-10-17T02:05:33.596Z,18.20
2022-10-17T02:08:02.320Z,20.20
2022-10-17T02:10:37.818Z,20.40
2022-10-17T02:13:16.677Z,15.60
2022-10-17T02:16:00.392Z,18.20
2022-10-17T02:18:54.403Z,21.60
2022-10-17T02:21:33.002Z,17.60
2022-10-17T02:24:08.879Z,16.80
2022-10-17T02:26:44.501Z,18.20
2022-10-17T02:29:19.101Z,20.00
2022-10-17T02:31:51.217Z,17.20
2022-10-17T02:34:27.588Z,19.20
2022-10-17T02:37:00.291Z,16.80
2022-10-17T02:39:31.257Z,20.40
2022-10-17T02:42:05.403Z,12.80
2022-10-17T02:44:35.325Z,19.80
2022-10-17T02:47:10.321Z,12.00
2022-10-17T02:49:45.618Z,17.80
2022-10-17T02:52:22.416Z,18.20
2022-10-17T02:54:55.966Z,22.60
2022-10-17T02:57:32.339Z,18.40
2022-10-17T03:00:04.932Z,18.80
2022-10-17T03:02:41.569Z,17.80
2022-10-17T03:05:15.172Z,18.80
2022-10-17T03:07:43.570Z,17.80
2022-10-17T03:10:12.991Z,19.00
2022-10-17T03:12:41.469Z,17.20
2022-10-17T03:15:12.808Z,19.80
2022-10-17T03:17:42.395Z,19.20
2022-10-17T03:20:13.499Z,18.80
2022-10-17T03:22:42.067Z,13.00
2022-10-17T03:25:12.020Z,20.20
2022-10-17T03:27:40.543Z,19.40
2022-10-17T03:30:11.538Z,19.20
2022-10-17T03:32:40.401Z,20.00
2022-10-17T03:35:13.983Z,21.00
2022-10-17T03:37:48.595Z,20.40
2022-10-17T03:40:18.632Z,12.00
2022-10-17T03:42:47.012Z,21.20
2022-10-17T03:45:16.251Z,16.80
2022-10-17T03:47:46.217Z,19.20
2022-10-17T03:50:15.346Z,19.60
2022-10-17T03:52:49.368Z,20.40
2022-10-17T03:55:18.611Z,21.20
2022-10-17T03:57:47.268Z,43.25
2022-10-17T04:00:18.410Z,32.25
2022-10-17T04:02:55.083Z,27.00
2022-10-17T04:05:24.818Z,55.33
2022-10-17T04:07:54.781Z,22.20
2022-10-17T04:10:32.001Z,21.80
2022-10-17T04:13:00.559Z,17.40
2022-10-17T04:15:29.384Z,18.40
2022-10-17T04:17:57.915Z,24.00
2022-10-17T04:20:26.963Z,21.00
2022-10-17T04:22:56.919Z,21.60
2022-10-17T04:25:25.750Z,29.75
2022-10-17T04:27:54.237Z,23.20
2022-10-17T04:30:23.059Z,20.20
2022-10-17T04:32:52.283Z,21.80
2022-10-17T04:35:23.670Z,18.80
2022-10-17T04:38:01.096Z,21.40
2022-10-17T04:40:29.842Z,22.40
2022-10-17T04:42:58.407Z,32.50
2022-10-17T04:45:34.715Z,28.25
2022-10-17T04:48:05.891Z,17.80
2022-10-17T04:50:34.564Z,23.20
2022-10-17T04:53:35.476Z,22.80
2022-10-17T04:56:10.380Z,18.80
2022-10-17T04:58:40.473Z,21.40
2022-10-17T05:01:11.520Z,23.60
2022-10-17T05:03:42.728Z,22.80
2022-10-17T05:06:13.346Z,12.80
2022-10-17T05:08:46.436Z,19.00
2022-10-17T05:11:20.584Z,19.00
2022-10-17T05:13:52.576Z,20.60
2022-10-17T05:16:22.537Z,20.20
2022-10-17T05:18:53.027Z,23.40
2022-10-17T05:21:24.401Z,23.40
2022-10-17T05:23:56.646Z,20.20
2022-10-17T05:26:26.687Z,21.80
2022-10-17T05:28:55.402Z,24.40
2022-10-17T05:31:26.942Z,15.40
2022-10-17T05:33:55.339Z,22.80
2022-10-17T05:36:24.580Z,23.25
2022-10-17T05:38:54.972Z,19.00
2022-10-17T05:41:24.392Z,22.00
2022-10-17T05:43:52.826Z,23.40
2022-10-17T05:46:30.804Z,24.20
2022-10-17T05:48:59.244Z,20.40
2022-10-17T05:51:28.134Z,23.80
2022-10-17T05:53:59.735Z,22.60
2022-10-17T05:56:29.934Z,24.60
2022-10-17T05:59:01.055Z,23.40
2022-10-17T06:01:50.711Z,25.20
2022-10-17T06:04:19.431Z,21.60
2022-10-17T06:06:48.209Z,9.40
2022-10-17T06:09:18.240Z,22.20
2022-10-17T06:11:50.157Z,21.60
2022-10-17T06:14:18.924Z,21.00
2022-10-17T06:16:49.730Z,23.20
2022-10-17T06:19:18.523Z,20.00
2022-10-17T06:21:48.610Z,25.25
2022-10-17T06:24:23.487Z,19.80
2022-10-17T06:26:54.360Z,21.80
2022-10-17T06:29:24.183Z,24.20
2022-10-17T06:31:54.115Z,20.60
2022-10-17T06:34:22.806Z,24.20
2022-10-17T06:36:51.901Z,19.40
2022-10-17T06:39:21.078Z,20.80
2022-10-17T06:42:06.319Z,21.40
2022-10-17T06:44:57.536Z,25.60
2022-10-17T06:47:55.835Z,22.40
2022-10-17T06:50:45.108Z,19.80
2022-10-17T06:53:25.975Z,23.00
2022-10-17T06:56:12.576Z,19.60
2022-10-17T06:59:09.899Z,23.00
2022-10-17T07:01:41.875Z,22.80
2022-10-17T07:04:14.845Z,23.60
2022-10-17T07:06:43.494Z,20.40
2022-10-17T07:09:18.155Z,18.40
2022-10-17T07:11:47.018Z,19.20
2022-10-17T07:14:20.952Z,18.40
2022-10-17T07:16:50.343Z,18.25
2022-10-17T07:19:25.595Z,22.40
2022-10-17T07:21:54.196Z,22.80
2022-10-17T07:24:23.509Z,24.25
2022-10-17T07:26:58.183Z,18.20
2022-10-17T07:29:28.814Z,22.75
2022-10-17T07:32:08.665Z,21.80
2022-10-17T07:34:37.676Z,19.25
2022-10-17T07:37:09.961Z,21.60
2022-10-17T07:39:41.147Z,20.75
2022-10-17T07:42:12.034Z,18.60
2022-10-17T07:44:42.205Z,22.40
2022-10-17T07:47:11.682Z,20.80
2022-10-17T07:49:42.741Z,19.20
2022-10-17T07:52:11.692Z,16.80
2022-10-17T07:54:40.559Z,20.20
2022-10-17T07:57:09.259Z,18.00
2022-10-17T07:59:39.465Z,18.40
2022-10-17T08:02:15.328Z,19.20
2022-10-17T08:04:44.108Z,18.20
2022-10-17T08:07:21.739Z,20.60
2022-10-17T08:09:52.093Z,18.20
2022-10-17T08:12:20.618Z,18.80
2022-10-17T08:14:50.746Z,19.60
2022-10-17T08:17:20.643Z,19.00
2022-10-17T08:19:49.653Z,18.00
2022-10-17T08:22:18.067Z,18.60
2022-10-17T08:24:47.314Z,19.40
2022-10-17T08:27:21.396Z,18.40
2022-10-17T08:29:52.871Z,18.40
2022-10-17T08:32:25.055Z,18.40
2022-10-17T08:34:54.108Z,19.40
2022-10-17T08:37:22.504Z,18.80
2022-10-17T08:39:51.135Z,18.00
2022-10-17T08:42:35.683Z,18.20
2022-10-17T08:45:14.707Z,17.40
2022-10-17T08:47:48.543Z,17.20
2022-10-17T08:50:32.164Z,20.00
2022-10-17T08:53:07.193Z,16.80
2022-10-17T08:55:42.799Z,16.80
2022-10-17T08:58:15.892Z,16.60
2022-10-17T09:00:50.552Z,18.00
2022-10-17T09:03:33.919Z,15.60
2022-10-17T09:06:16.202Z,17.00
2022-10-17T09:08:54.344Z,18.20
2022-10-17T09:11:41.957Z,19.40
2022-10-17T09:14:29.549Z,18.80
2022-10-17T09:17:12.422Z,17.80
2022-10-17T09:19:50.249Z,21.00
2022-10-17T09:22:24.460Z,20.80
2022-10-17T09:24:58.471Z,18.00
2022-10-17T09:27:34.825Z,20.00
2022-10-17T09:30:40.452Z,17.40
2022-10-17T09:33:23.335Z,19.60
2022-10-17T09:36:05.519Z,19.80
2022-10-17T09:38:41.597Z,20.00
2022-10-17T09:44:26.246Z,14.60
2022-10-17T09:47:16.597Z,16.80
2022-10-17T09:49:47.271Z,10.00
2022-10-17T09:52:19.969Z,18.75
2022-10-17T09:54:51.589Z,16.40
2022-10-17T09:57:21.825Z,21.80
2022-10-17T09:59:59.411Z,18.80
2022-10-17T10:02:30.026Z,16.40
2022-10-17T10:05:04.619Z,17.40
2022-10-17T10:07:38.700Z,17.60
2022-10-17T10:10:23.938Z,18.00
2022-10-17T10:13:05.785Z,14.60
2022-10-17T10:15:37.897Z,17.60
2022-10-17T10:21:09.080Z,15.00
2022-10-17T10:23:41.163Z,19.80
2022-10-17T10:26:23.552Z,15.80
2022-10-17T10:29:00.075Z,10.20
2022-10-17T10:31:32.874Z,16.00
2022-10-17T10:34:04.185Z,18.00
2022-10-17T10:36:56.389Z,15.20
2022-10-17T10:39:35.925Z,15.80
2022-10-17T10:42:08.697Z,15.80
2022-10-17T10:44:42.108Z,15.80
2022-10-17T10:47:21.791Z,16.80
2022-10-17T10:49:53.864Z,15.20
2022-10-17T10:52:39.105Z,13.40
2022-10-17T10:55:19.387Z,18.00
2022-10-17T10:57:50.378Z,15.60
2022-10-17T11:00:24.319Z,16.00
2022-10-17T11:03:01.918Z,19.00
2022-10-17T11:05:46.727Z,14.40
2022-10-17T11:08:23.976Z,14.80
2022-10-17T11:11:09.148Z,14.60
2022-10-17T11:13:44.471Z,15.00
2022-10-17T11:16:29.138Z,17.20
2022-10-17T11:19:05.177Z,20.20
2022-10-17T11:24:22.860Z,15.00
2022-10-17T11:26:57.381Z,16.20
2022-10-17T11:29:29.812Z,17.60
2022-10-17T11:32:02.396Z,15.60
2022-10-17T11:34:36.638Z,15.00
2022-10-17T11:37:10.925Z,18.20
2022-10-17T11:39:48.639Z,15.20
2022-10-17T11:42:24.698Z,18.60
2022-10-17T11:45:00.458Z,17.20
2022-10-17T11:47:35.823Z,16.40
2022-10-17T11:53:02.802Z,15.60
2022-10-17T11:55:34.327Z,14.00
2022-10-17T11:58:24.574Z,14.60
2022-10-17T12:01:01.733Z,18.00
2022-10-17T12:03:41.318Z,15.80
2022-10-17T12:06:17.649Z,17.20
2022-10-17T12:08:55.086Z,15.00
2022-10-17T12:11:35.814Z,14.00
2022-10-17T12:14:37.150Z,15.40
2022-10-17T12:17:21.929Z,14.80
2022-10-17T12:19:50.444Z,14.00
2022-10-17T12:22:22.648Z,17.20
2022-10-17T12:24:57.566Z,16.40
2022-10-17T12:27:39.631Z,19.60
2022-10-17T12:30:19.185Z,17.80
2022-10-17T12:33:07.999Z,17.00
2022-10-17T12:35:38.557Z,16.40
2022-10-17T12:38:26.278Z,15.60
2022-10-17T12:40:57.788Z,17.00
2022-10-17T12:43:53.951Z,18.20
2022-10-17T12:46:56.654Z,17.20
2022-10-17T12:49:51.191Z,15.40
2022-10-17T12:52:26.948Z,16.20
2022-10-17T12:55:10.827Z,13.80
2022-10-17T12:57:49.763Z,11.00
2022-10-17T13:00:24.155Z,15.80
2022-10-17T13:02:57.202Z,13.40
2022-10-17T13:05:30.523Z,13.60
2022-10-17T13:08:02.115Z,14.00
2022-10-17T13:10:35.096Z,13.80
2022-10-17T13:13:14.039Z,15.80
2022-10-17T13:15:47.650Z,13.40
2022-10-17T13:18:22.803Z,16.20
2022-10-17T13:20:59.881Z,15.60
2022-10-17T13:23:33.106Z,14.60
2022-10-17T13:26:15.064Z,12.60
2022-10-17T13:28:44.489Z,11.60
2022-10-17T13:31:30.025Z,14.20
2022-10-17T13:34:01.832Z,12.60
2022-10-17T13:36:32.115Z,13.00
2022-10-17T13:39:07.640Z,14.20
2022-10-17T13:41:38.374Z,13.40
2022-10-17T13:44:14.399Z,20.40
2022-10-17T13:46:44.173Z,14.40
2022-10-17T13:49:23.191Z,16.00
2022-10-17T13:51:56.327Z,12.00
2022-10-17T13:54:36.386Z,15.60
2022-10-17T13:57:06.457Z,14.80
2022-10-17T13:59:40.059Z,15.80
2022-10-17T14:02:16.573Z,14.20
2022-10-17T14:05:15.606Z,16.00
2022-10-17T14:08:09.386Z,14.60
2022-10-17T14:10:34.272Z,13.80
2022-10-17T14:13:04.762Z,12.40
2022-10-17T14:15:36.222Z,14.60
2022-10-17T14:18:09.519Z,14.60
2022-10-17T14:21:19.828Z,13.40
2022-10-17T14:23:37.856Z,14.20
2022-10-17T14:26:09.616Z,12.20
2022-10-17T14:28:39.892Z,13.40
2022-10-17T14:31:25.700Z,14.20
2022-10-17T14:33:55.927Z,13.40
2022-10-17T14:36:40.000Z,14.80
2022-10-17T14:39:19.650Z,14.40
2022-10-17T14:41:49.287Z,7.40
2022-10-17T14:44:24.047Z,13.20
2022-10-17T14:46:56.773Z,15.60
2022-10-17T14:49:32.485Z,14.20
2022-10-17T14:52:31.672Z,20.00
2022-10-17T14:55:13.379Z,15.80
2022-10-17T14:57:46.905Z,12.80
2022-10-17T15:00:17.114Z,14.40
2022-10-17T15:02:46.465Z,15.60
2022-10-17T15:05:16.395Z,19.60
2022-10-17T15:07:46.247Z,17.20
2022-10-17T15:10:26.413Z,17.80
2022-10-17T15:12:59.936Z,16.20
2022-10-17T15:15:33.942Z,16.20
2022-10-17T15:18:02.856Z,20.80
2022-10-17T15:20:31.885Z,20.60
2022-10-17T15:23:03.224Z,25.00
2022-10-17T15:25:34.293Z,22.00
2022-10-17T15:28:02.734Z,19.00
2022-10-17T15:30:33.654Z,19.60
2022-10-17T15:33:02.952Z,18.40
2022-10-17T15:35:32.156Z,19.80
2022-10-17T15:38:02.401Z,22.00
2022-10-17T15:40:31.298Z,27.25
2022-10-17T15:42:59.686Z,24.75
2022-10-17T15:45:28.516Z,22.75
2022-10-17T15:48:01.738Z,25.00
2022-10-17T15:50:30.717Z,24.50
2022-10-17T15:53:00.009Z,24.00
2022-10-17T15:55:31.950Z,25.25
2022-10-17T15:58:00.345Z,28.00
2022-10-17T16:00:29.294Z,32.00
2022-10-17T16:02:57.941Z,27.75
2022-10-17T16:05:28.513Z,27.50
2022-10-17T16:07:58.017Z,32.00
2022-10-17T16:10:27.192Z,33.50
2022-10-17T16:12:57.260Z,31.50
2022-10-17T16:15:28.021Z,31.75
2022-10-17T16:18:00.566Z,28.50
2022-10-17T16:20:32.099Z,32.00
2022-10-17T16:23:03.047Z,31.75
2022-10-17T16:25:33.168Z,29.75
2022-10-17T16:28:04.212Z,32.75
2022-10-17T16:30:33.988Z,31.75
2022-10-17T16:33:02.368Z,32.50
2022-10-17T16:35:36.497Z,35.50
2022-10-17T16:38:07.268Z,31.50
2022-10-17T16:40:40.032Z,27.75
2022-10-17T16:43:12.367Z,34.75
2022-10-17T16:45:41.368Z,32.75
2022-10-17T16:48:10.825Z,36.50
2022-10-17T16:50:41.052Z,37.00
2022-10-17T16:53:09.885Z,25.50
2022-10-17T16:55:39.566Z,33.50
2022-10-17T16:58:09.312Z,32.50
2022-10-17T17:00:40.071Z,31.75
2022-10-17T17:03:08.558Z,33.25
2022-10-17T17:05:37.170Z,35.00
2022-10-17T17:08:09.086Z,29.25
2022-10-17T17:10:45.750Z,28.00
2022-10-17T17:13:15.758Z,26.75
2022-10-17T17:18:15.450Z,36.50
2022-10-17T17:20:44.108Z,35.00
2022-10-17T17:23:15.702Z,29.50
2022-10-17T17:25:45.304Z,30.00
2022-10-17T17:28:15.136Z,31.75
2022-10-17T17:30:44.009Z,25.00
2022-10-17T17:33:12.412Z,28.25
2022-10-17T17:35:41.216Z,30.75
2022-10-17T17:38:09.730Z,30.75
2022-10-17T17:40:38.494Z,21.00
2022-10-17T17:43:06.869Z,28.75
2022-10-17T17:45:37.289Z,26.00
2022-10-17T17:48:05.869Z,30.00
2022-10-17T17:50:37.702Z,29.25
2022-10-17T17:53:07.535Z,30.00
2022-10-17T17:55:37.189Z,27.00
2022-10-17T17:58:06.299Z,35.50
2022-10-17T18:00:37.383Z,30.00
2022-10-17T18:03:05.886Z,28.50
2022-10-17T18:05:35.003Z,23.25
2022-10-17T18:08:05.187Z,29.50
2022-10-17T18:10:33.838Z,28.75
2022-10-17T18:13:02.290Z,28.75
2022-10-17T18:15:31.273Z,29.25
2022-10-17T18:18:01.228Z,32.75
2022-10-17T18:20:30.045Z,30.00
2022-10-17T18:23:00.614Z,30.00
2022-10-17T18:25:32.223Z,33.50
2022-10-17T18:28:00.550Z,29.75
2022-10-17T18:30:32.290Z,32.25
2022-10-17T18:33:04.348Z,32.75
2022-10-17T18:35:33.267Z,33.00
2022-10-17T18:38:01.776Z,33.50
2022-10-17T18:40:30.551Z,31.00
2022-10-17T18:42:59.382Z,29.75
2022-10-17T18:45:28.389Z,32.75
2022-10-17T18:47:57.014Z,31.75
2022-10-17T18:50:27.470Z,32.50
2022-10-17T18:52:55.897Z,32.50
2022-10-17T18:55:25.081Z,32.00
2022-10-17T18:57:53.791Z,33.25
2022-10-17T19:00:22.751Z,32.25
2022-10-17T19:02:51.317Z,31.50
2022-10-17T19:05:19.909Z,28.75
2022-10-17T19:07:50.326Z,33.25
2022-10-17T19:10:19.383Z,33.50
2022-10-17T19:12:47.888Z,32.25
2022-10-17T19:15:16.792Z,31.25
2022-10-17T19:17:45.321Z,31.25
2022-10-17T19:20:14.040Z,34.25
2022-10-17T19:22:43.078Z,32.75
2022-10-17T19:25:14.043Z,34.25
2022-10-17T19:27:42.600Z,31.50
2022-10-17T19:30:12.680Z,33.25
2022-10-17T19:32:41.082Z,31.50
2022-10-17T19:35:11.738Z,25.50
2022-10-17T19:37:40.381Z,33.00
2022-10-17T19:40:11.251Z,35.75
2022-10-17T19:42:41.736Z,35.50
2022-10-17T19:45:11.264Z,34.00
2022-10-17T19:47:39.841Z,34.25
2022-10-17T19:50:09.277Z,34.25
2022-10-17T19:52:38.251Z,33.75
2022-10-17T19:55:07.806Z,35.25
2022-10-17T19:57:36.606Z,34.50
2022-10-17T20:00:08.027Z,33.25
2022-10-17T20:02:39.748Z,36.50
2022-10-17T20:05:18.555Z,33.75
2022-10-17T20:07:47.847Z,34.75
2022-10-17T20:10:18.450Z,32.75
2022-10-17T20:12:46.918Z,35.25
2022-10-17T20:15:17.044Z,34.25
2022-10-17T20:17:45.456Z,31.75
2022-10-17T20:20:14.371Z,34.75
2022-10-17T20:22:42.756Z,31.50
2022-10-17T20:25:11.630Z,33.25
2022-10-17T20:27:39.976Z,36.75
2022-10-17T20:30:09.521Z,36.00
2022-10-17T20:32:39.758Z,34.75
2022-10-17T20:35:09.393Z,35.50
2022-10-17T20:37:41.676Z,33.75
2022-10-17T20:43:00.655Z,34.25
2022-10-17T20:45:43.746Z,36.25
2022-10-17T20:48:19.257Z,32.75
2022-10-17T20:50:47.888Z,35.25
2022-10-17T20:53:36.987Z,31.75
2022-10-17T20:56:08.605Z,35.00
2022-10-17T20:58:37.201Z,33.25
2022-10-17T21:01:07.639Z,36.75
2022-10-17T21:03:39.937Z,33.50
2022-10-17T21:06:11.813Z,34.50
2022-10-17T21:08:41.299Z,33.50
2022-10-17T21:11:12.599Z,35.00
2022-10-17T21:13:41.719Z,30.00
2022-10-17T21:16:12.061Z,32.00
2022-10-17T21:18:42.239Z,32.50
2022-10-17T21:21:13.914Z,32.25
2022-10-17T21:23:44.211Z,26.50
2022-10-17T21:26:13.781Z,30.75
2022-10-17T21:28:43.623Z,31.25
2022-10-17T21:31:15.422Z,29.75
2022-10-17T21:33:47.237Z,32.75
2022-10-17T21:36:17.372Z,32.25
2022-10-17T21:38:47.262Z,33.25
2022-10-17T21:41:17.863Z,32.00
2022-10-17T21:43:46.772Z,28.25
2022-10-17T21:46:17.340Z,30.50
2022-10-17T21:48:52.252Z,31.75
2022-10-17T21:51:26.537Z,28.00
2022-10-17T21:53:57.587Z,32.25
2022-10-17T21:56:28.711Z,24.25
2022-10-17T21:58:57.554Z,28.50
2022-10-17T22:01:28.120Z,30.25
2022-10-17T22:04:01.966Z,29.00
2022-10-17T22:06:39.619Z,32.25
2022-10-17T22:09:16.535Z,22.75
2022-10-17T22:11:46.986Z,28.50
2022-10-17T22:14:22.839Z,27.50
2022-10-17T22:16:51.797Z,28.25
2022-10-17T22:19:24.416Z,30.00
2022-10-17T22:21:53.516Z,29.75
2022-10-17T22:24:23.305Z,27.00
2022-10-17T22:26:52.264Z,27.75
2022-10-17T22:29:21.231Z,28.25
2022-10-17T22:31:49.900Z,26.00
2022-10-17T22:34:19.271Z,28.00
2022-10-17T22:36:49.228Z,29.75
2022-10-17T22:39:17.752Z,26.25
2022-10-17T22:41:46.432Z,26.75
2022-10-17T22:44:14.855Z,29.25
2022-10-17T22:46:43.613Z,28.25
2022-10-17T22:49:12.599Z,26.75
2022-10-17T22:51:41.379Z,26.50
2022-10-17T22:54:11.113Z,25.25
2022-10-17T22:56:39.805Z,28.00
2022-10-17T22:59:08.218Z,30.00
2022-10-17T23:01:36.894Z,26.25
2022-10-17T23:04:05.448Z,23.75
2022-10-17T23:06:34.095Z,30.50
2022-10-17T23:09:03.252Z,26.00
2022-10-17T23:11:33.264Z,29.25
2022-10-17T23:14:01.625Z,30.25
2022-10-17T23:16:30.495Z,30.75
2022-10-17T23:18:59.166Z,30.50
2022-10-17T23:21:27.755Z,28.75
2022-10-17T23:23:56.235Z,26.75
2022-10-17T23:26:24.809Z,28.75
2022-10-17T23:28:56.205Z,28.25
2022-10-17T23:31:24.826Z,29.25
2022-10-17T23:33:53.235Z,31.00
2022-10-17T23:36:22.500Z,27.00
2022-10-17T23:38:53.720Z,28.50
2022-10-17T23:41:25.014Z,25.75
2022-10-17T23:43:53.448Z,29.75
2022-10-17T23:46:23.655Z,26.25
2022-10-17T23:48:52.064Z,27.75
2022-10-17T23:51:20.568Z,26.50
2022-10-17T23:53:48.996Z,30.50
2022-10-17T23:56:17.847Z,28.00
2022-10-17T23:58:46.164Z,30.75
